Time,TemperatureF,DewpointF,PressureIn,WindDirection,WindDirectionDegrees,WindSpeedMPH,WindSpeedGustMPH,Humidity,HourlyPrecipIn,Conditions,Clouds,dailyrainin,SoftwareType,DateUTC
2013-04-01 00:02:00,41.0,30.9,-100.00,NW,322,11.0,18.0,67,0.00,,,0.00,meteohub,2013-04-01 05:02:00,
2013-04-01 00:07:00,40.8,30.7,-100.00,NW,314,7.0,18.0,67,0.00,,,0.00,meteohub,2013-04-01 05:07:00,
2013-04-01 00:12:00,40.8,30.7,-100.00,NW,307,8.0,18.0,67,0.00,,,0.00,meteohub,2013-04-01 05:12:00,
2013-04-01 00:17:00,40.8,30.7,-100.00,WNW,290,4.0,19.0,67,0.00,,,0.00,meteohub,2013-04-01 05:17:00,
2013-04-01 00:22:00,40.8,30.7,-100.00,NNW,331,13.0,19.0,67,0.00,,,0.00,meteohub,2013-04-01 05:22:00,
2013-04-01 00:27:00,40.6,30.6,-100.00,NNW,340,11.0,19.0,67,0.00,,,0.00,meteohub,2013-04-01 05:27:00,
2013-04-01 00:32:00,40.6,30.6,-100.00,NNE,12,9.0,19.0,67,0.00,,,0.00,meteohub,2013-04-01 05:32:00,
2013-04-01 00:37:00,40.6,30.6,-100.00,NW,325,5.0,23.0,67,0.00,,,0.00,meteohub,2013-04-01 05:37:00,
2013-04-01 00:42:00,40.6,30.6,-100.00,NNW,333,4.0,23.0,67,0.00,,,0.00,meteohub,2013-04-01 05:42:00,
2013-04-01 00:47:00,40.6,30.2,-100.00,West,278,8.0,17.0,66,0.00,,,0.00,meteohub,2013-04-01 05:47:00,
2013-04-01 00:52:00,40.6,30.2,-100.00,WNW,295,9.0,20.0,66,0.00,,,0.00,meteohub,2013-04-01 05:52:00,
2013-04-01 00:57:00,40.6,30.2,-100.00,North,5,11.0,22.0,66,0.00,,,0.00,meteohub,2013-04-01 05:57:00,
2013-04-01 01:02:00,40.6,29.8,-100.00,NNW,327,15.0,22.0,65,0.00,,,0.00,meteohub,2013-04-01 06:02:00,
2013-04-01 01:07:00,40.6,29.8,-100.00,NNW,344,10.0,22.0,65,0.00,,,0.00,meteohub,2013-04-01 06:07:00,
2013-04-01 01:12:00,40.5,29.7,-100.00,NNW,328,10.0,22.0,65,0.00,,,0.00,meteohub,2013-04-01 06:12:00,
2013-04-01 01:17:00,40.5,30.0,-100.00,WNW,302,16.0,22.0,66,0.00,,,0.00,meteohub,2013-04-01 06:17:00,
2013-04-01 01:22:00,40.3,29.1,-100.00,NW,317,11.0,25.0,64,0.00,,,0.00,meteohub,2013-04-01 06:22:00,
2013-04-01 01:27:00,39.9,28.4,-100.00,NNW,335,12.0,25.0,63,0.00,,,0.00,meteohub,2013-04-01 06:27:00,
2013-04-01 01:32:00,39.7,27.3,-100.00,NW,308,12.0,25.0,61,0.00,,,0.00,meteohub,2013-04-01 06:32:00,
2013-04-01 01:37:00,39.7,26.6,-100.00,NW,309,9.0,21.0,59,0.00,,,0.00,meteohub,2013-04-01 06:37:00,
2013-04-01 01:42:00,39.6,26.8,-100.00,WNW,288,4.0,21.0,60,0.00,,,0.00,meteohub,2013-04-01 06:42:00,
2013-04-01 01:47:00,39.6,27.1,-100.00,NW,305,17.0,22.0,61,0.00,,,0.00,meteohub,2013-04-01 06:47:00,
2013-04-01 01:52:00,39.4,27.5,-100.00,NW,319,10.0,22.0,62,0.00,,,0.00,meteohub,2013-04-01 06:52:00,
2013-04-01 01:57:00,39.4,27.5,-100.00,NW,314,9.0,22.0,62,0.00,,,0.00,meteohub,2013-04-01 06:57:00,
2013-04-01 02:03:00,39.4,27.9,-100.00,WNW,296,10.0,22.0,63,0.00,,,0.00,meteohub,2013-04-01 07:03:00,
2013-04-01 02:07:00,39.2,27.7,-100.00,North,351,9.0,17.0,63,0.00,,,0.00,meteohub,2013-04-01 07:07:00,
2013-04-01 02:13:00,39.2,27.7,-100.00,NNE,24,8.0,19.0,63,0.00,,,0.00,meteohub,2013-04-01 07:13:00,
2013-04-01 02:18:00,39.0,27.5,-100.00,NNW,335,11.0,20.0,63,0.00,,,0.00,meteohub,2013-04-01 07:18:00,
2013-04-01 02:23:00,39.0,26.2,-100.00,NW,321,12.0,21.0,60,0.00,,,0.00,meteohub,2013-04-01 07:23:00,
2013-04-01 02:28:00,38.8,25.7,-100.00,NW,325,16.0,22.0,59,0.00,,,0.00,meteohub,2013-04-01 07:28:00,
2013-04-01 02:33:00,38.7,24.8,-100.00,NNW,341,22.0,26.0,57,0.00,,,0.00,meteohub,2013-04-01 07:33:00,
2013-04-01 02:38:00,38.7,23.9,-100.00,NW,321,10.0,26.0,55,0.00,,,0.00,meteohub,2013-04-01 07:38:00,
2013-04-01 02:43:00,38.5,24.1,-100.00,NW,318,12.0,26.0,56,0.00,,,0.00,meteohub,2013-04-01 07:43:00,
2013-04-01 02:48:00,38.5,24.6,-100.00,NNW,329,10.0,25.0,57,0.00,,,0.00,meteohub,2013-04-01 07:48:00,
2013-04-01 02:53:00,38.1,24.6,-100.00,NW,317,7.0,25.0,58,0.00,,,0.00,meteohub,2013-04-01 07:53:00,
2013-04-01 02:58:00,38.1,24.6,-100.00,NNW,339,14.0,23.0,58,0.00,,,0.00,meteohub,2013-04-01 07:58:00,
2013-04-01 03:03:00,37.9,25.3,-100.00,NNW,344,16.0,20.0,60,0.00,,,0.00,meteohub,2013-04-01 08:03:00,
2013-04-01 03:08:00,37.6,26.1,-100.00,NNW,338,14.0,22.0,63,0.00,,,0.00,meteohub,2013-04-01 08:08:00,
2013-04-01 03:13:00,37.0,26.1,-100.00,NW,306,11.0,22.0,64,0.00,,,0.00,meteohub,2013-04-01 08:13:00,
2013-04-01 03:18:00,36.9,25.9,-100.00,NW,324,9.0,23.0,64,0.00,,,0.00,meteohub,2013-04-01 08:18:00,
2013-04-01 03:23:00,37.0,24.1,-100.00,NW,309,11.0,23.0,59,0.00,,,0.00,meteohub,2013-04-01 08:23:00,
2013-04-01 03:28:00,37.2,24.6,-100.00,WNW,288,4.0,21.0,60,0.00,,,0.00,meteohub,2013-04-01 08:28:00,
2013-04-01 03:33:00,37.2,25.0,-100.00,NNW,332,12.0,20.0,61,0.00,,,0.00,meteohub,2013-04-01 08:33:00,
2013-04-01 03:38:00,37.0,24.1,-100.00,NNE,15,6.0,21.0,59,0.00,,,0.00,meteohub,2013-04-01 08:38:00,
2013-04-01 03:43:00,36.9,24.3,-100.00,NW,317,13.0,21.0,60,0.00,,,0.00,meteohub,2013-04-01 08:43:00,
2013-04-01 03:48:00,36.7,24.1,-100.00,NE,40,12.0,24.0,60,0.00,,,0.00,meteohub,2013-04-01 08:48:00,
2013-04-01 03:53:00,36.3,24.1,-100.00,NNW,339,14.0,24.0,61,0.00,,,0.00,meteohub,2013-04-01 08:53:00,
2013-04-01 03:58:00,36.1,24.4,-100.00,NNW,338,15.0,24.0,62,0.00,,,0.00,meteohub,2013-04-01 08:58:00,
2013-04-01 04:03:00,36.0,23.0,-100.00,NNW,341,13.0,22.0,59,0.00,,,0.00,meteohub,2013-04-01 09:03:00,
2013-04-01 04:08:00,36.0,22.6,-100.00,NW,321,9.0,22.0,58,0.00,,,0.00,meteohub,2013-04-01 09:08:00,
2013-04-01 04:13:00,36.0,23.0,-100.00,NW,306,12.0,22.0,59,0.00,,,0.00,meteohub,2013-04-01 09:13:00,
2013-04-01 04:18:00,36.0,22.3,-100.00,NW,315,7.0,21.0,57,0.00,,,0.00,meteohub,2013-04-01 09:18:00,
2013-04-01 04:23:00,36.0,23.9,-100.00,SW,223,4.0,19.0,61,0.00,,,0.00,meteohub,2013-04-01 09:23:00,
2013-04-01 04:28:00,36.0,23.9,-100.00,NW,304,12.0,19.0,61,0.00,,,0.00,meteohub,2013-04-01 09:28:00,
2013-04-01 04:33:00,35.8,22.5,-100.00,NE,53,10.0,19.0,58,0.00,,,0.00,meteohub,2013-04-01 09:33:00,
2013-04-01 04:38:00,35.6,20.7,-100.00,NNW,328,6.0,21.0,54,0.00,,,0.00,meteohub,2013-04-01 09:38:00,
2013-04-01 04:43:00,35.6,21.4,-100.00,NW,309,3.0,21.0,56,0.00,,,0.00,meteohub,2013-04-01 09:43:00,
2013-04-01 04:48:00,35.8,24.4,-100.00,WNW,296,6.0,21.0,63,0.00,,,0.00,meteohub,2013-04-01 09:48:00,
2013-04-01 04:53:00,35.8,25.5,-100.00,NW,304,4.0,16.0,66,0.00,,,0.00,meteohub,2013-04-01 09:53:00,
2013-04-01 04:58:00,35.6,26.1,-100.00,NW,309,5.0,14.0,68,0.00,,,0.00,meteohub,2013-04-01 09:58:00,
2013-04-01 05:03:00,35.4,26.2,-100.00,NW,306,2.0,14.0,69,0.00,,,0.00,meteohub,2013-04-01 10:03:00,
2013-04-01 05:08:00,35.2,26.1,-100.00,NNW,330,3.0,14.0,69,0.00,,,0.00,meteohub,2013-04-01 10:08:00,
2013-04-01 05:13:00,35.2,26.1,-100.00,NW,310,6.0,13.0,69,0.00,,,0.00,meteohub,2013-04-01 10:13:00,
2013-04-01 05:18:00,35.1,25.9,-100.00,WNW,302,8.0,11.0,69,0.00,,,0.00,meteohub,2013-04-01 10:18:00,
2013-04-01 05:23:00,34.9,25.7,-100.00,North,349,5.0,13.0,69,0.00,,,0.00,meteohub,2013-04-01 10:23:00,
2013-04-01 05:28:00,34.7,25.5,-100.00,NW,322,6.0,15.0,69,0.00,,,0.00,meteohub,2013-04-01 10:28:00,
2013-04-01 05:33:00,34.3,25.5,-100.00,NNW,345,10.0,15.0,70,0.00,,,0.00,meteohub,2013-04-01 10:33:00,
2013-04-01 05:38:00,34.3,25.5,-100.00,NW,313,10.0,14.0,70,0.00,,,0.00,meteohub,2013-04-01 10:38:00,
2013-04-01 05:43:00,34.0,24.6,-100.00,WNW,300,9.0,14.0,68,0.00,,,0.00,meteohub,2013-04-01 10:43:00,
2013-04-01 05:48:00,33.4,23.7,-100.00,NNW,333,5.0,17.0,67,0.00,,,0.00,meteohub,2013-04-01 10:48:00,
2013-04-01 05:53:00,33.1,23.7,-100.00,NNW,330,7.0,17.0,68,0.00,,,0.00,meteohub,2013-04-01 10:53:00,
2013-04-01 05:58:00,32.7,23.7,-100.00,NNE,18,7.0,19.0,69,0.00,,,0.00,meteohub,2013-04-01 10:58:00,
2013-04-01 06:03:00,32.4,23.4,-100.00,NW,325,12.0,19.0,69,0.00,,,0.00,meteohub,2013-04-01 11:03:00,
2013-04-01 06:08:00,32.2,23.5,-100.00,NW,323,15.0,19.0,70,0.00,,,0.00,meteohub,2013-04-01 11:08:00,
2013-04-01 06:13:00,31.6,23.0,-100.00,NNW,331,9.0,18.0,70,0.00,,,0.00,meteohub,2013-04-01 11:13:00,
2013-04-01 06:19:00,31.5,23.2,-100.00,NW,307,10.0,18.0,71,0.00,,,0.00,meteohub,2013-04-01 11:19:00,
2013-04-01 06:24:00,31.3,23.0,-100.00,NW,310,6.0,16.0,71,0.00,,,0.00,meteohub,2013-04-01 11:24:00,
2013-04-01 06:29:00,30.9,23.0,-100.00,WNW,300,2.0,15.0,72,0.00,,,0.00,meteohub,2013-04-01 11:29:00,
2013-04-01 06:34:00,30.6,22.6,-100.00,NNE,15,5.0,15.0,72,0.00,,,0.00,meteohub,2013-04-01 11:34:00,
2013-04-01 06:39:00,30.4,22.8,-100.00,WNW,302,8.0,15.0,73,0.00,,,0.00,meteohub,2013-04-01 11:39:00,
2013-04-01 06:44:00,30.2,23.0,-100.00,NW,326,6.0,15.0,74,0.00,,,0.00,meteohub,2013-04-01 11:44:00,
2013-04-01 06:49:00,30.0,22.8,-100.00,NW,309,6.0,15.0,74,0.00,,,0.00,meteohub,2013-04-01 11:49:00,
2013-04-01 06:54:00,30.0,23.0,-100.00,NW,310,6.0,15.0,75,0.00,,,0.00,meteohub,2013-04-01 11:54:00,
2013-04-01 06:59:00,29.8,22.8,-100.00,NNW,331,3.0,13.0,75,0.00,,,0.00,meteohub,2013-04-01 11:59:00,
2013-04-01 07:04:00,29.8,22.6,-100.00,NNW,338,14.0,16.0,74,0.00,,,0.00,meteohub,2013-04-01 12:04:00,
2013-04-01 07:09:00,30.0,22.8,-100.00,NW,319,12.0,16.0,74,0.00,,,0.00,meteohub,2013-04-01 12:09:00,
2013-04-01 07:14:00,30.0,22.8,-100.00,NNW,335,4.0,16.0,74,0.00,,,0.00,meteohub,2013-04-01 12:14:00,
2013-04-01 07:19:00,30.0,22.8,-100.00,NW,323,5.0,16.0,74,0.00,,,0.00,meteohub,2013-04-01 12:19:00,
2013-04-01 07:24:00,30.2,23.0,-100.00,NW,315,7.0,15.0,74,0.00,,,0.00,meteohub,2013-04-01 12:24:00,
2013-04-01 07:29:00,30.4,23.4,-100.00,NW,311,3.0,15.0,75,0.00,,,0.00,meteohub,2013-04-01 12:29:00,
2013-04-01 07:34:00,30.6,23.5,-100.00,NW,319,2.0,13.0,75,0.00,,,0.00,meteohub,2013-04-01 12:34:00,
2013-04-01 07:39:00,30.6,23.0,-100.00,NW,309,11.0,12.0,73,0.00,,,0.00,meteohub,2013-04-01 12:39:00,
2013-04-01 07:44:00,30.7,23.2,-100.00,NNW,329,14.0,15.0,73,0.00,,,0.00,meteohub,2013-04-01 12:44:00,
2013-04-01 07:49:00,30.7,23.2,-100.00,NNW,346,15.0,15.0,73,0.00,,,0.00,meteohub,2013-04-01 12:49:00,
2013-04-01 07:54:00,30.7,22.8,-100.00,NW,306,9.0,17.0,72,0.00,,,0.00,meteohub,2013-04-01 12:54:00,
2013-04-01 07:59:00,30.9,23.0,-100.00,NW,314,7.0,18.0,72,0.00,,,0.00,meteohub,2013-04-01 12:59:00,
2013-04-01 08:04:00,31.5,23.5,-100.00,NW,311,8.0,18.0,72,0.00,,,0.00,meteohub,2013-04-01 13:04:00,
2013-04-01 08:09:00,32.0,24.1,-100.00,NNW,335,5.0,17.0,72,0.00,,,0.00,meteohub,2013-04-01 13:09:00,
2013-04-01 08:14:00,32.5,23.9,-100.00,NNW,330,10.0,15.0,70,0.00,,,0.00,meteohub,2013-04-01 13:14:00,
2013-04-01 08:19:00,32.5,23.9,-100.00,NW,325,9.0,15.0,70,0.00,,,0.00,meteohub,2013-04-01 13:19:00,
2013-04-01 08:24:00,31.8,23.2,-100.00,South,184,5.0,16.0,70,0.00,,,0.00,meteohub,2013-04-01 13:24:00,
2013-04-01 08:29:00,31.8,22.8,-100.00,WNW,292,10.0,18.0,69,0.00,,,0.00,meteohub,2013-04-01 13:29:00,
2013-04-01 08:34:00,32.0,23.0,-100.00,NNW,330,11.0,19.0,69,0.00,,,0.00,meteohub,2013-04-01 13:34:00,
2013-04-01 08:39:00,32.2,23.2,-100.00,WNW,291,6.0,19.0,69,0.00,,,0.00,meteohub,2013-04-01 13:39:00,
2013-04-01 08:44:00,32.4,23.4,-100.00,NW,321,7.0,20.0,69,0.00,,,0.00,meteohub,2013-04-01 13:44:00,
2013-04-01 08:49:00,33.3,23.5,-100.00,NNW,333,11.0,20.0,67,0.00,,,0.00,meteohub,2013-04-01 13:49:00,
2013-04-01 08:54:00,33.4,23.7,-100.00,West,271,10.0,20.0,67,0.00,,,0.00,meteohub,2013-04-01 13:54:00,
2013-04-01 08:59:00,34.0,23.5,-100.00,NW,317,7.0,18.0,65,0.00,,,0.00,meteohub,2013-04-01 13:59:00,
2013-04-01 09:04:00,34.0,23.5,-100.00,WNW,291,8.0,18.0,65,0.00,,,0.00,meteohub,2013-04-01 14:04:00,
2013-04-01 09:09:00,34.0,23.5,-100.00,NW,325,12.0,18.0,65,0.00,,,0.00,meteohub,2013-04-01 14:09:00,
2013-04-01 09:14:00,33.4,23.0,-100.00,NNW,343,11.0,16.0,65,0.00,,,0.00,meteohub,2013-04-01 14:14:00,
2013-04-01 09:19:00,33.4,23.4,-100.00,NNW,337,10.0,16.0,66,0.00,,,0.00,meteohub,2013-04-01 14:19:00,
2013-04-01 09:24:00,34.0,24.3,-100.00,WSW,240,2.0,16.0,67,0.00,,,0.00,meteohub,2013-04-01 14:24:00,
2013-04-01 09:29:00,34.2,23.5,-100.00,NW,317,7.0,16.0,65,0.00,,,0.00,meteohub,2013-04-01 14:29:00,
2013-04-01 09:34:00,34.9,23.9,-100.00,WNW,287,5.0,16.0,64,0.00,,,0.00,meteohub,2013-04-01 14:34:00,
2013-04-01 09:39:00,35.4,23.7,-100.00,NW,314,10.0,16.0,62,0.00,,,0.00,meteohub,2013-04-01 14:39:00,
2013-04-01 09:44:00,35.2,23.9,-100.00,NW,306,10.0,16.0,63,0.00,,,0.00,meteohub,2013-04-01 14:44:00,
2013-04-01 09:49:00,35.8,24.1,-100.00,WNW,284,4.0,15.0,62,0.00,,,0.00,meteohub,2013-04-01 14:49:00,
2013-04-01 09:54:00,36.0,24.6,-100.00,SSE,159,3.0,15.0,63,0.00,,,0.00,meteohub,2013-04-01 14:54:00,
2013-04-01 09:59:00,36.0,24.3,-100.00,NW,319,6.0,15.0,62,0.00,,,0.00,meteohub,2013-04-01 14:59:00,
2013-04-01 10:04:00,36.5,24.3,-100.00,NNW,338,12.0,15.0,61,0.00,,,0.00,meteohub,2013-04-01 15:04:00,
2013-04-01 10:09:00,36.5,24.3,-100.00,NW,314,10.0,14.0,61,0.00,,,0.00,meteohub,2013-04-01 15:09:00,
2013-04-01 10:14:00,36.9,24.6,-100.00,NE,36,2.0,14.0,61,0.00,,,0.00,meteohub,2013-04-01 15:14:00,
2013-04-01 10:19:00,36.1,24.4,-100.00,NNW,337,5.0,15.0,62,0.00,,,0.00,meteohub,2013-04-01 15:19:00,
2013-04-01 10:24:00,36.7,24.1,-100.00,SSE,166,3.0,15.0,60,0.00,,,0.00,meteohub,2013-04-01 15:24:00,
2013-04-01 10:29:00,36.9,25.0,-100.00,NW,304,5.0,15.0,62,0.00,,,0.00,meteohub,2013-04-01 15:29:00,
2013-04-01 10:34:00,38.1,25.0,-100.00,NE,56,2.0,14.0,59,0.00,,,0.00,meteohub,2013-04-01 15:34:00,
2013-04-01 10:39:00,38.5,25.3,-100.00,WNW,303,4.0,14.0,59,0.00,,,0.00,meteohub,2013-04-01 15:39:00,
2013-04-01 10:44:00,39.2,25.2,-100.00,NW,323,10.0,14.0,57,0.00,,,0.00,meteohub,2013-04-01 15:44:00,
2013-04-01 10:49:00,39.0,24.3,-100.00,WNW,292,6.0,14.0,55,0.00,,,0.00,meteohub,2013-04-01 15:49:00,
2013-04-01 10:54:00,38.3,23.9,-100.00,NW,319,4.0,14.0,56,0.00,,,0.00,meteohub,2013-04-01 15:54:00,
2013-04-01 10:59:00,38.8,25.0,-100.00,West,264,7.0,14.0,57,0.00,,,0.00,meteohub,2013-04-01 15:59:00,
2013-04-01 11:04:00,39.7,24.1,-100.00,WNW,298,11.0,14.0,53,0.00,,,0.00,meteohub,2013-04-01 16:04:00,
2013-04-01 11:09:00,39.9,23.7,-100.00,NNW,332,10.0,14.0,52,0.00,,,0.00,meteohub,2013-04-01 16:09:00,
2013-04-01 11:14:00,39.4,24.1,-100.00,WNW,292,5.0,14.0,54,0.00,,,0.00,meteohub,2013-04-01 16:14:00,
2013-04-01 11:19:00,39.7,24.1,-100.00,NE,47,3.0,14.0,53,0.00,,,0.00,meteohub,2013-04-01 16:19:00,
2013-04-01 11:24:00,39.6,23.4,-100.00,WNW,290,9.0,15.0,52,0.00,,,0.00,meteohub,2013-04-01 16:24:00,
2013-04-01 11:29:00,39.9,23.2,-100.00,NNW,331,4.0,16.0,51,0.00,,,0.00,meteohub,2013-04-01 16:29:00,
2013-04-01 11:34:00,39.7,23.2,-100.00,NNW,330,2.0,17.0,51,0.00,,,0.00,meteohub,2013-04-01 16:34:00,
2013-04-01 11:39:00,39.4,22.3,-100.00,NNW,332,10.0,17.0,50,0.00,,,0.00,meteohub,2013-04-01 16:39:00,
2013-04-01 11:44:00,39.0,22.8,-100.00,WNW,288,7.0,17.0,52,0.00,,,0.00,meteohub,2013-04-01 16:44:00,
2013-04-01 11:49:00,40.8,23.2,-100.00,WSW,245,7.0,17.0,49,0.00,,,0.00,meteohub,2013-04-01 16:49:00,
2013-04-01 11:54:00,41.5,23.7,-100.00,NNW,333,6.0,17.0,49,0.00,,,0.00,meteohub,2013-04-01 16:54:00,
2013-04-01 11:59:00,40.5,23.7,-100.00,NW,326,8.0,17.0,51,0.00,,,0.00,meteohub,2013-04-01 16:59:00,
2013-04-01 12:04:00,40.3,25.0,-100.00,WNW,294,5.0,14.0,54,0.00,,,0.00,meteohub,2013-04-01 17:04:00,
2013-04-01 12:10:00,42.4,24.6,-100.00,West,263,2.0,16.0,49,0.00,,,0.00,meteohub,2013-04-01 17:10:00,
2013-04-01 12:15:00,42.6,25.3,-100.00,West,273,6.0,16.0,50,0.00,,,0.00,meteohub,2013-04-01 17:15:00,
2013-04-01 12:20:00,44.6,25.2,-100.00,NW,309,1.0,16.0,46,0.00,,,0.00,meteohub,2013-04-01 17:20:00,
2013-04-01 12:25:00,44.1,25.2,-100.00,West,269,5.0,13.0,47,0.00,,,0.00,meteohub,2013-04-01 17:25:00,
2013-04-01 12:30:00,44.2,24.3,-100.00,NW,313,5.0,14.0,45,0.00,,,0.00,meteohub,2013-04-01 17:30:00,
2013-04-01 12:35:00,43.2,23.7,-100.00,WNW,296,3.0,14.0,46,0.00,,,0.00,meteohub,2013-04-01 17:35:00,
2013-04-01 12:40:00,43.3,23.9,-100.00,West,268,2.0,14.0,46,0.00,,,0.00,meteohub,2013-04-01 17:40:00,
2013-04-01 12:45:00,44.8,25.3,-100.00,NNW,337,7.0,13.0,46,0.00,,,0.00,meteohub,2013-04-01 17:45:00,
2013-04-01 12:50:00,44.4,25.5,-100.00,West,259,1.0,15.0,47,0.00,,,0.00,meteohub,2013-04-01 17:50:00,
2013-04-01 12:55:00,45.1,25.0,-100.00,WNW,298,4.0,15.0,45,0.00,,,0.00,meteohub,2013-04-01 17:55:00,
2013-04-01 13:00:00,44.8,24.3,-100.00,WNW,292,5.0,15.0,44,0.00,,,0.00,meteohub,2013-04-01 18:00:00,
2013-04-01 13:05:00,44.1,24.1,-100.00,NW,309,0.0,11.0,45,0.00,,,0.00,meteohub,2013-04-01 18:05:00,
2013-04-01 13:10:00,43.9,24.4,-100.00,NW,322,2.0,17.0,46,0.00,,,0.00,meteohub,2013-04-01 18:10:00,
2013-04-01 13:15:00,44.6,24.1,-100.00,NW,311,10.0,17.0,44,0.00,,,0.00,meteohub,2013-04-01 18:15:00,
2013-04-01 13:20:00,44.4,24.4,-100.00,WNW,298,5.0,16.0,45,0.00,,,0.00,meteohub,2013-04-01 18:20:00,
2013-04-01 13:25:00,43.9,23.9,-100.00,WNW,299,5.0,15.0,45,0.00,,,0.00,meteohub,2013-04-01 18:25:00,
2013-04-01 13:30:00,43.9,23.9,-100.00,NW,325,4.0,15.0,45,0.00,,,0.00,meteohub,2013-04-01 18:30:00,
2013-04-01 13:35:00,44.1,23.5,-100.00,WNW,297,5.0,15.0,44,0.00,,,0.00,meteohub,2013-04-01 18:35:00,
2013-04-01 13:40:00,44.1,24.6,-100.00,West,275,5.0,18.0,46,0.00,,,0.00,meteohub,2013-04-01 18:40:00,
2013-04-01 13:45:00,44.8,23.7,-100.00,NNW,327,9.0,18.0,43,0.00,,,0.00,meteohub,2013-04-01 18:45:00,
2013-04-01 13:50:00,45.3,23.5,-100.00,WSW,252,3.0,18.0,42,0.00,,,0.00,meteohub,2013-04-01 18:50:00,
2013-04-01 13:55:00,46.8,24.8,-100.00,West,265,9.0,15.0,42,0.00,,,0.00,meteohub,2013-04-01 18:55:00,
2013-04-01 14:00:00,46.8,23.7,-100.00,NE,38,4.0,15.0,40,0.00,,,0.00,meteohub,2013-04-01 19:00:00,
2013-04-01 14:05:00,45.0,23.7,-100.00,NW,306,3.0,15.0,43,0.00,,,0.00,meteohub,2013-04-01 19:05:00,
2013-04-01 14:10:00,45.0,23.7,-100.00,WNW,303,6.0,13.0,43,0.00,,,0.00,meteohub,2013-04-01 19:10:00,
2013-04-01 14:15:00,46.0,22.5,-100.00,West,281,2.0,17.0,39,0.00,,,0.00,meteohub,2013-04-01 19:15:00,
2013-04-01 14:20:00,46.4,22.8,-100.00,NW,313,13.0,17.0,39,0.00,,,0.00,meteohub,2013-04-01 19:20:00,
2013-04-01 14:25:00,46.0,23.0,-100.00,NW,319,4.0,17.0,40,0.00,,,0.00,meteohub,2013-04-01 19:25:00,
2013-04-01 14:30:00,45.3,22.5,-100.00,NW,308,6.0,14.0,40,0.00,,,0.00,meteohub,2013-04-01 19:30:00,
2013-04-01 14:35:00,45.9,21.7,-100.00,WNW,302,5.0,18.0,38,0.00,,,0.00,meteohub,2013-04-01 19:35:00,
2013-04-01 14:40:00,45.3,23.0,-100.00,WNW,294,5.0,18.0,41,0.00,,,0.00,meteohub,2013-04-01 19:40:00,
2013-04-01 14:45:00,45.3,22.5,-100.00,WNW,284,5.0,17.0,40,0.00,,,0.00,meteohub,2013-04-01 19:45:00,
2013-04-01 14:50:00,45.1,21.0,-100.00,NW,325,5.0,15.0,38,0.00,,,0.00,meteohub,2013-04-01 19:50:00,
2013-04-01 14:55:00,45.0,22.6,-100.00,West,271,6.0,18.0,41,0.00,,,0.00,meteohub,2013-04-01 19:55:00,
2013-04-01 15:00:00,44.8,22.5,-100.00,NNW,327,10.0,18.0,41,0.00,,,0.00,meteohub,2013-04-01 20:00:00,
2013-04-01 15:05:00,45.0,22.1,-100.00,West,266,12.0,15.0,40,0.00,,,0.00,meteohub,2013-04-01 20:05:00,
2013-04-01 15:10:00,45.9,21.0,-100.00,NW,317,6.0,16.0,37,0.00,,,0.00,meteohub,2013-04-01 20:10:00,
2013-04-01 15:15:00,46.6,21.7,-100.00,NNW,330,5.0,16.0,37,0.00,,,0.00,meteohub,2013-04-01 20:15:00,
2013-04-01 15:20:00,46.9,22.1,-100.00,NW,312,9.0,16.0,37,0.00,,,0.00,meteohub,2013-04-01 20:20:00,
2013-04-01 15:25:00,47.1,22.1,-100.00,WNW,295,17.0,18.0,37,0.00,,,0.00,meteohub,2013-04-01 20:25:00,
2013-04-01 15:30:00,46.8,21.2,-100.00,NW,324,5.0,18.0,36,0.00,,,0.00,meteohub,2013-04-01 20:30:00,
2013-04-01 15:35:00,46.0,20.5,-100.00,SW,232,4.0,17.0,36,0.00,,,0.00,meteohub,2013-04-01 20:35:00,
2013-04-01 15:40:00,46.6,21.7,-100.00,West,266,0.0,17.0,37,0.00,,,0.00,meteohub,2013-04-01 20:40:00,
2013-04-01 15:45:00,46.8,20.5,-100.00,WNW,302,7.0,21.0,35,0.00,,,0.00,meteohub,2013-04-01 20:45:00,
2013-04-01 15:50:00,46.0,20.5,-100.00,NW,325,8.0,21.0,36,0.00,,,0.00,meteohub,2013-04-01 20:50:00,
2013-04-01 15:55:00,45.3,21.2,-100.00,NW,306,5.0,21.0,38,0.00,,,0.00,meteohub,2013-04-01 20:55:00,
2013-04-01 16:00:00,45.9,21.0,-100.00,WNW,284,11.0,17.0,37,0.00,,,0.00,meteohub,2013-04-01 21:00:00,
2013-04-01 16:05:00,45.7,19.6,-100.00,NW,317,0.0,18.0,35,0.00,,,0.00,meteohub,2013-04-01 21:05:00,
2013-04-01 16:10:00,45.9,20.5,-100.00,WNW,302,2.0,18.0,36,0.00,,,0.00,meteohub,2013-04-01 21:10:00,
2013-04-01 16:15:00,45.7,19.6,-100.00,WNW,299,8.0,16.0,35,0.00,,,0.00,meteohub,2013-04-01 21:15:00,
2013-04-01 16:20:00,45.5,20.1,-100.00,WNW,283,7.0,16.0,36,0.00,,,0.00,meteohub,2013-04-01 21:20:00,
2013-04-01 16:25:00,45.9,19.8,-100.00,WNW,285,4.0,16.0,35,0.00,,,0.00,meteohub,2013-04-01 21:25:00,
2013-04-01 16:30:00,45.1,19.8,-100.00,NW,310,1.0,17.0,36,0.00,,,0.00,meteohub,2013-04-01 21:30:00,
2013-04-01 16:35:00,45.0,20.3,-100.00,NNW,333,3.0,17.0,37,0.00,,,0.00,meteohub,2013-04-01 21:35:00,
2013-04-01 16:40:00,45.0,20.8,-100.00,WNW,296,5.0,15.0,38,0.00,,,0.00,meteohub,2013-04-01 21:40:00,
2013-04-01 16:45:00,45.7,20.8,-100.00,WNW,287,2.0,15.0,37,0.00,,,0.00,meteohub,2013-04-01 21:45:00,
2013-04-01 16:50:00,45.1,19.8,-100.00,NW,326,10.0,15.0,36,0.00,,,0.00,meteohub,2013-04-01 21:50:00,
2013-04-01 16:55:00,45.0,19.6,-100.00,WNW,294,0.0,18.0,36,0.00,,,0.00,meteohub,2013-04-01 21:55:00,
2013-04-01 17:00:00,45.0,20.3,-100.00,NW,304,10.0,18.0,37,0.00,,,0.00,meteohub,2013-04-01 22:00:00,
2013-04-01 17:05:00,44.8,20.1,-100.00,NW,310,7.0,18.0,37,0.00,,,0.00,meteohub,2013-04-01 22:05:00,
2013-04-01 17:10:00,45.1,19.8,-100.00,WNW,284,4.0,16.0,36,0.00,,,0.00,meteohub,2013-04-01 22:10:00,
2013-04-01 17:15:00,45.1,20.5,-100.00,West,275,2.0,15.0,37,0.00,,,0.00,meteohub,2013-04-01 22:15:00,
2013-04-01 17:20:00,45.0,18.9,-100.00,NW,325,9.0,13.0,35,0.00,,,0.00,meteohub,2013-04-01 22:20:00,
2013-04-01 17:25:00,45.0,19.6,-100.00,NW,317,10.0,17.0,36,0.00,,,0.00,meteohub,2013-04-01 22:25:00,
2013-04-01 17:31:00,44.8,20.1,-100.00,WNW,286,2.0,17.0,37,0.00,,,0.00,meteohub,2013-04-01 22:31:00,
2013-04-01 17:36:00,45.0,19.6,-100.00,WNW,291,3.0,17.0,36,0.00,,,0.00,meteohub,2013-04-01 22:36:00,
2013-04-01 17:41:00,44.8,18.9,-100.00,West,267,0.0,15.0,35,0.00,,,0.00,meteohub,2013-04-01 22:41:00,
2013-04-01 17:46:00,44.8,20.1,-100.00,NW,308,3.0,11.0,37,0.00,,,0.00,meteohub,2013-04-01 22:46:00,
2013-04-01 17:51:00,44.6,19.2,-100.00,WNW,284,3.0,15.0,36,0.00,,,0.00,meteohub,2013-04-01 22:51:00,
2013-04-01 17:56:00,44.6,19.9,-100.00,NNE,27,7.0,15.0,37,0.00,,,0.00,meteohub,2013-04-01 22:56:00,
2013-04-01 18:01:00,44.2,19.6,-100.00,NNW,344,5.0,15.0,37,0.00,,,0.00,meteohub,2013-04-01 23:01:00,
2013-04-01 18:06:00,44.1,19.4,-100.00,NW,322,6.0,13.0,37,0.00,,,0.00,meteohub,2013-04-01 23:06:00,
2013-04-01 18:11:00,44.1,18.9,-100.00,NW,313,6.0,15.0,36,0.00,,,0.00,meteohub,2013-04-01 23:11:00,
2013-04-01 18:16:00,44.1,18.9,-100.00,NNW,331,12.0,15.0,36,0.00,,,0.00,meteohub,2013-04-01 23:16:00,
2013-04-01 18:21:00,43.5,18.3,-100.00,NNE,22,5.0,16.0,36,0.00,,,0.00,meteohub,2013-04-01 23:21:00,
2013-04-01 18:26:00,43.5,19.0,-100.00,NNE,13,9.0,16.0,37,0.00,,,0.00,meteohub,2013-04-01 23:26:00,
2013-04-01 18:31:00,43.5,18.3,-100.00,NW,315,4.0,16.0,36,0.00,,,0.00,meteohub,2013-04-01 23:31:00,
2013-04-01 18:36:00,43.5,19.0,-100.00,WNW,291,3.0,13.0,37,0.00,,,0.00,meteohub,2013-04-01 23:36:00,
2013-04-01 18:41:00,43.3,18.1,-100.00,WNW,302,4.0,13.0,36,0.00,,,0.00,meteohub,2013-04-01 23:41:00,
2013-04-01 18:46:00,43.2,19.2,-100.00,WNW,294,1.0,13.0,38,0.00,,,0.00,meteohub,2013-04-01 23:46:00,
2013-04-01 18:51:00,43.0,19.0,-100.00,North,350,7.0,12.0,38,0.00,,,0.00,meteohub,2013-04-01 23:51:00,
2013-04-01 18:56:00,42.6,18.9,-100.00,NNW,329,5.0,12.0,38,0.00,,,0.00,meteohub,2013-04-01 23:56:00,
2013-04-01 19:01:00,42.4,19.2,-100.00,NW,325,6.0,12.0,39,0.00,,,0.00,meteohub,2013-04-02 00:01:00,
2013-04-01 19:06:00,42.1,19.6,-100.00,NW,322,5.0,12.0,40,0.00,,,0.00,meteohub,2013-04-02 00:06:00,
2013-04-01 19:11:00,41.9,18.7,-100.00,NW,318,10.0,12.0,39,0.00,,,0.00,meteohub,2013-04-02 00:11:00,
2013-04-01 19:16:00,41.5,19.6,-100.00,NNW,333,3.0,12.0,41,0.00,,,0.00,meteohub,2013-04-02 00:16:00,
2013-04-01 19:21:00,41.2,19.2,-100.00,NW,304,4.0,11.0,41,0.00,,,0.00,meteohub,2013-04-02 00:21:00,
2013-04-01 19:26:00,40.8,18.9,-100.00,WNW,288,0.0,11.0,41,0.00,,,0.00,meteohub,2013-04-02 00:26:00,
2013-04-01 19:31:00,40.5,19.2,-100.00,NW,325,2.0,10.0,42,0.00,,,0.00,meteohub,2013-04-02 00:31:00,
2013-04-01 19:36:00,40.3,19.0,-100.00,NW,315,1.0,9.0,42,0.00,,,0.00,meteohub,2013-04-02 00:36:00,
2013-04-01 19:41:00,39.7,18.5,-100.00,WNW,302,0.0,7.0,42,0.00,,,0.00,meteohub,2013-04-02 00:41:00,
2013-04-01 19:46:00,39.6,19.4,-100.00,NW,317,0.0,6.0,44,0.00,,,0.00,meteohub,2013-04-02 00:46:00,
2013-04-01 19:51:00,39.4,19.2,-100.00,North,355,1.0,6.0,44,0.00,,,0.00,meteohub,2013-04-02 00:51:00,
2013-04-01 19:56:00,39.2,19.0,-100.00,NNW,329,0.0,6.0,44,0.00,,,0.00,meteohub,2013-04-02 00:56:00,
2013-04-01 20:01:00,39.0,19.4,-100.00,NW,315,3.0,6.0,45,0.00,,,0.00,meteohub,2013-04-02 01:01:00,
2013-04-01 20:06:00,38.7,19.2,-100.00,NW,318,0.0,6.0,45,0.00,,,0.00,meteohub,2013-04-02 01:06:00,
2013-04-01 20:11:00,38.5,19.6,-100.00,NW,314,0.0,5.0,46,0.00,,,0.00,meteohub,2013-04-02 01:11:00,
2013-04-01 20:16:00,37.9,19.6,-100.00,NW,313,0.0,5.0,47,0.00,,,0.00,meteohub,2013-04-02 01:16:00,
2013-04-01 20:21:00,37.9,19.0,-100.00,NNW,330,1.0,4.0,46,0.00,,,0.00,meteohub,2013-04-02 01:21:00,
2013-04-01 20:26:00,37.8,19.4,-100.00,NW,320,4.0,4.0,47,0.00,,,0.00,meteohub,2013-04-02 01:26:00,
2013-04-01 20:31:00,37.6,19.2,-100.00,NW,322,4.0,5.0,47,0.00,,,0.00,meteohub,2013-04-02 01:31:00,
2013-04-01 20:36:00,37.6,19.6,-100.00,NW,325,3.0,5.0,48,0.00,,,0.00,meteohub,2013-04-02 01:36:00,
2013-04-01 20:41:00,37.2,19.8,-100.00,NNW,327,3.0,5.0,49,0.00,,,0.00,meteohub,2013-04-02 01:41:00,
2013-04-01 20:46:00,37.0,20.1,-100.00,NW,321,0.0,5.0,50,0.00,,,0.00,meteohub,2013-04-02 01:46:00,
2013-04-01 20:51:00,36.7,19.8,-100.00,NW,319,2.0,5.0,50,0.00,,,0.00,meteohub,2013-04-02 01:51:00,
2013-04-01 20:56:00,36.5,19.6,-100.00,NW,324,2.0,5.0,50,0.00,,,0.00,meteohub,2013-04-02 01:56:00,
2013-04-01 21:01:00,36.3,19.4,-100.00,NW,325,0.0,5.0,50,0.00,,,0.00,meteohub,2013-04-02 02:01:00,
2013-04-01 21:06:00,36.3,19.4,-100.00,NNW,333,5.0,5.0,50,0.00,,,0.00,meteohub,2013-04-02 02:06:00,
2013-04-01 21:11:00,36.1,19.8,-100.00,NNW,336,0.0,5.0,51,0.00,,,0.00,meteohub,2013-04-02 02:11:00,
2013-04-01 21:16:00,36.1,20.3,-100.00,NNW,331,0.0,5.0,52,0.00,,,0.00,meteohub,2013-04-02 02:16:00,
2013-04-01 21:21:00,36.0,20.1,-100.00,NNW,330,0.0,5.0,52,0.00,,,0.00,meteohub,2013-04-02 02:21:00,
2013-04-01 21:26:00,35.8,19.9,-100.00,NW,326,0.0,5.0,52,0.00,,,0.00,meteohub,2013-04-02 02:26:00,
2013-04-01 21:31:00,35.6,19.8,-100.00,NW,325,0.0,4.0,52,0.00,,,0.00,meteohub,2013-04-02 02:31:00,
2013-04-01 21:36:00,35.4,19.6,-100.00,NW,324,2.0,5.0,52,0.00,,,0.00,meteohub,2013-04-02 02:36:00,
2013-04-01 21:41:00,35.2,19.8,-100.00,NW,324,3.0,5.0,53,0.00,,,0.00,meteohub,2013-04-02 02:41:00,
2013-04-01 21:46:00,35.1,20.1,-100.00,NW,319,0.0,5.0,54,0.00,,,0.00,meteohub,2013-04-02 02:46:00,
2013-04-01 21:51:00,35.1,20.1,-100.00,NW,317,0.0,4.0,54,0.00,,,0.00,meteohub,2013-04-02 02:51:00,
2013-04-01 21:56:00,34.9,20.3,-100.00,NW,321,3.0,4.0,55,0.00,,,0.00,meteohub,2013-04-02 02:56:00,
2013-04-01 22:02:00,34.7,20.1,-100.00,NW,322,0.0,6.0,55,0.00,,,0.00,meteohub,2013-04-02 03:02:00,
2013-04-01 22:07:00,34.5,20.5,-100.00,WNW,301,0.0,6.0,56,0.00,,,0.00,meteohub,2013-04-02 03:07:00,
2013-04-01 22:12:00,34.3,20.7,-100.00,NW,321,0.0,5.0,57,0.00,,,0.00,meteohub,2013-04-02 03:12:00,
2013-04-01 22:17:00,34.3,20.7,-100.00,NW,314,0.0,5.0,57,0.00,,,0.00,meteohub,2013-04-02 03:17:00,
2013-04-01 22:22:00,34.3,20.7,-100.00,NW,319,3.0,5.0,57,0.00,,,0.00,meteohub,2013-04-02 03:22:00,
2013-04-01 22:27:00,34.3,20.3,-100.00,NW,306,0.0,6.0,56,0.00,,,0.00,meteohub,2013-04-02 03:27:00,
2013-04-01 22:32:00,34.3,20.7,-100.00,North,5,0.0,9.0,57,0.00,,,0.00,meteohub,2013-04-02 03:32:00,
2013-04-01 22:37:00,34.3,20.7,-100.00,NNW,333,6.0,9.0,57,0.00,,,0.00,meteohub,2013-04-02 03:37:00,
2013-04-01 22:42:00,34.3,20.7,-100.00,NW,306,4.0,11.0,57,0.00,,,0.00,meteohub,2013-04-02 03:42:00,
2013-04-01 22:47:00,34.2,20.5,-100.00,NW,319,2.0,11.0,57,0.00,,,0.00,meteohub,2013-04-02 03:47:00,
2013-04-01 22:52:00,34.0,20.8,-100.00,NNW,342,6.0,9.0,58,0.00,,,0.00,meteohub,2013-04-02 03:52:00,
2013-04-01 22:57:00,34.0,21.2,-100.00,NNW,338,1.0,8.0,59,0.00,,,0.00,meteohub,2013-04-02 03:57:00,
2013-04-01 23:00:00,33.8,21.0,-100.00,NW,313,5.0,8.0,59,0.00,,,0.00,meteohub,2013-04-02 04:00:00,
2013-04-01 23:01:00,33.6,20.8,-100.00,NNW,334,4.0,8.0,59,0.00,,,0.00,meteohub,2013-04-02 04:01:00,
2013-04-01 23:06:00,33.6,21.2,-100.00,NNW,344,3.0,8.0,60,0.00,,,0.00,meteohub,2013-04-02 04:06:00,
2013-04-01 23:11:00,33.4,21.0,-100.00,NW,313,3.0,7.0,60,0.00,,,0.00,meteohub,2013-04-02 04:11:00,
2013-04-01 23:16:00,33.4,21.0,-100.00,NNW,334,5.0,7.0,60,0.00,,,0.00,meteohub,2013-04-02 04:16:00,
2013-04-01 23:21:00,33.4,21.0,-100.00,NNW,346,6.0,11.0,60,0.00,,,0.00,meteohub,2013-04-02 04:21:00,
2013-04-01 23:26:00,33.3,20.8,-100.00,NNE,17,5.0,11.0,60,0.00,,,0.00,meteohub,2013-04-02 04:26:00,
2013-04-01 23:32:00,33.3,21.2,-100.00,NNW,336,5.0,11.0,61,0.00,,,0.00,meteohub,2013-04-02 04:32:00,
2013-04-01 23:37:00,32.9,20.8,-100.00,NW,323,3.0,10.0,61,0.00,,,0.00,meteohub,2013-04-02 04:37:00,
2013-04-01 23:41:00,32.7,21.2,-100.00,NNW,327,4.0,9.0,62,0.00,,,0.00,meteohub,2013-04-02 04:41:00,
2013-04-01 23:46:00,32.5,21.0,-100.00,NW,319,4.0,10.0,62,0.00,,,0.00,meteohub,2013-04-02 04:46:00,
2013-04-01 23:51:00,32.5,21.0,-100.00,NW,326,3.0,10.0,62,0.00,,,0.00,meteohub,2013-04-02 04:51:00,
2013-04-01 23:56:00,32.4,20.8,-100.00,NNW,329,5.0,10.0,62,0.00,,,0.00,meteohub,2013-04-02 04:56:00,